Date,TemperatureHighF,TemperatureAvgF,TemperatureLowF,DewpointHighF,DewpointAvgF,DewpointLowF,HumidityHigh,HumidityAvg,HumidityLow,PressureMaxIn,PressureMinIn,WindSpeedMaxMPH,WindSpeedAvgMPH,GustSpeedMaxMPH,PrecipitationSumIn
2014-1-1,46.0,31.0,21.0,29.0,24.2,20.0,95,78,43,0.00,40.00,4,2,8,0.00
2014-1-2,40.0,32.1,21.0,38.0,29.1,15.0,100,89,69,0.00,40.00,7,3,23,0.34
2014-1-3,26.0,20.2,15.0,15.0,7.5,4.0,81,59,39,0.00,40.00,6,3,18,0.08
2014-1-4,40.0,24.9,14.0,20.0,13.7,-99.9,88,67,40,0.00,40.00,4,2,7,0.01
2014-1-5,54.0,38.0,24.0,41.0,29.5,20.0,85,72,54,0.00,40.00,3,2,9,0.01
2014-1-6,47.0,18.6,4.0,44.0,9.7,-9.0,98,69,48,0.00,40.00,8,6,25,0.30
2014-1-7,16.0,7.4,0.0,3.0,-5.5,-13.0,79,55,42,0.00,40.00,5,3,17,0.04
2014-1-8,35.0,18.7,6.0,19.0,8.4,2.0,83,66,40,0.00,40.00,3,2,6,0.02
2014-1-9,44.0,28.9,21.0,28.0,21.3,17.0,85,74,44,0.00,40.00,3,2,6,0.02
2014-1-10,55.0,44.5,37.0,49.0,41.5,28.0,100,90,68,0.00,40.00,4,2,7,0.08
2014-1-11,60.0,50.6,44.0,56.0,43.1,-99.9,100,81,47,0.00,40.00,8,4,26,0.89
2014-1-12,55.0,42.6,32.0,36.0,32.1,29.0,96,68,37,0.00,40.00,5,2,13,0.06
2014-1-13,42.0,35.9,28.0,41.0,33.6,27.0,100,91,72,0.00,40.00,3,2,7,0.08
2014-1-14,54.0,44.3,33.0,46.0,37.8,30.0,100,81,42,0.00,40.00,6,2,13,0.34
2014-1-15,42.0,35.1,28.0,35.0,27.7,14.0,99,76,51,0.00,40.00,4,2,12,0.03
2014-1-16,39.0,29.8,19.0,21.0,15.8,8.0,89,59,27,0.00,40.00,5,2,11,0.01
2014-1-17,45.0,35.2,26.0,28.0,22.8,16.0,86,61,39,0.00,40.00,8,4,25,0.00
2014-1-18,36.0,27.4,22.0,18.0,10.9,-99.9,76,52,35,0.00,40.00,6,3,14,0.00
2014-1-19,46.0,36.0,26.0,26.0,22.3,14.0,73,58,44,0.00,40.00,6,3,14,0.00
2014-1-20,57.0,41.9,30.0,27.0,24.8,23.0,78,54,29,0.00,40.00,6,3,14,0.00
2014-1-21,45.0,31.6,18.0,31.0,23.4,8.0,96,72,56,0.00,40.00,7,4,19,0.00
2014-1-22,25.0,17.8,9.0,8.0,0.6,-6.0,70,49,26,0.00,40.00,6,4,17,0.00
2014-1-23,27.0,20.8,11.0,11.0,3.1,-6.0,61,46,30,0.00,40.00,7,4,17,0.00
2014-1-24,25.0,13.2,2.0,1.0,-3.9,-9.0,73,48,21,0.00,40.00,5,3,12,0.00
2014-1-25,34.0,25.3,11.0,20.0,7.0,-99.9,78,49,23,0.00,40.00,7,5,26,0.00
2014-1-26,53.0,37.1,17.0,27.0,17.6,7.0,75,46,33,0.00,40.00,8,4,20,0.00
2014-1-27,49.0,38.4,21.0,33.0,17.1,-3.0,62,43,22,0.00,40.00,6,4,18,0.00
2014-1-28,21.0,17.5,13.0,14.0,7.1,-3.0,88,66,35,0.00,40.00,7,4,12,0.00
2014-1-29,24.0,11.3,-3.0,9.0,-2.1,-9.0,85,60,24,0.00,40.00,3,2,6,0.11
2014-1-30,35.0,16.0,-1.0,14.0,4.0,-6.0,81,63,33,0.00,40.00,4,2,7,0.03
2014-1-31,46.0,28.6,16.0,22.0,16.2,11.0,84,63,32,0.00,40.00,3,2,7,0.00
2014-2-1,60.0,39.5,24.0,38.0,23.6,-99.9,91,60,25,0.00,40.00,4,2,11,0.00
2014-2-2,46.0,40.2,31.0,45.0,39.5,31.0,100,98,77,0.00,40.00,4,2,9,0.33
2014-2-3,45.0,41.0,36.0,45.0,38.7,32.0,100,92,77,0.00,40.00,5,3,12,1.74
2014-2-4,55.0,43.6,31.0,47.0,37.9,31.0,100,81,62,0.00,40.00,8,3,13,0.01
2014-2-5,51.0,42.9,28.0,49.0,37.3,19.0,100,81,63,0.00,40.00,10,4,23,0.20
2014-2-6,35.0,30.1,27.0,21.0,19.4,18.0,73,64,53,0.00,40.00,5,3,11,0.01
2014-2-7,39.0,31.5,28.0,25.0,21.9,21.0,82,68,49,0.00,40.00,5,2,9,0.00
2014-2-8,43.0,36.1,30.0,33.0,28.1,24.0,88,73,56,0.00,40.00,5,2,9,0.00
2014-2-9,46.0,39.6,36.0,37.0,34.9,32.0,96,83,69,0.00,40.00,5,2,14,0.02
2014-2-10,39.0,34.9,30.0,33.0,27.2,21.0,98,74,58,0.00,40.00,5,2,11,0.02
2014-2-11,42.0,32.2,27.0,22.0,14.6,6.0,73,51,22,0.00,40.00,7,4,13,0.00
2014-2-12,36.0,31.1,28.0,29.0,20.2,11.0,100,67,41,0.00,40.00,9,6,20,0.00
2014-2-13,41.0,32.4,27.0,34.0,29.7,27.0,100,90,62,0.00,40.00,5,2,11,0.37
2014-2-14,53.0,43.3,27.0,38.0,29.5,26.0,99,60,42,0.00,40.00,6,3,28,0.01
2014-2-15,42.0,32.4,26.0,40.0,20.8,-99.9,95,66,47,0.00,40.00,7,4,18,0.09
2014-2-16,53.0,38.2,27.0,32.0,27.7,20.0,96,69,40,0.00,40.00,6,3,15,0.01
2014-2-17,59.0,41.6,27.0,46.0,31.0,26.0,97,71,32,0.00,40.00,7,3,15,0.07
2014-2-18,62.0,47.5,32.0,47.0,29.4,19.0,96,55,19,0.00,40.00,6,3,16,0.07
2014-2-19,71.0,55.3,43.0,57.0,45.4,31.0,100,73,41,0.00,40.00,8,3,17,0.35
2014-2-20,76.0,60.4,46.0,52.0,46.1,38.0,88,62,37,0.00,40.00,8,4,23,0.08
2014-2-21,67.0,51.0,36.0,57.0,35.6,20.0,95,60,28,0.00,40.00,8,4,24,0.86
2014-2-22,63.0,44.3,30.0,33.0,24.8,-99.9,92,56,18,0.00,40.00,4,2,9,0.01
2014-2-23,68.0,49.8,33.0,36.0,29.9,27.0,83,53,22,0.00,40.00,6,3,17,0.00
2014-2-24,51.0,42.8,32.0,36.0,22.3,7.0,79,49,17,0.00,40.00,5,3,17,0.00
2014-2-25,50.0,39.9,30.0,26.0,18.6,13.0,68,45,24,0.00,40.00,5,2,12,0.00
2014-2-26,38.0,34.2,27.0,23.0,16.0,5.0,62,48,31,0.00,40.00,6,3,13,0.00
2014-2-27,44.0,30.5,18.0,12.0,6.6,2.0,67,38,20,0.00,40.00,6,3,15,0.00
2014-2-28,50.0,33.6,19.0,17.0,11.8,5.0,75,45,16,0.00,40.00,7,3,11,0.00
2014-3-1,61.0,45.8,33.0,36.0,27.3,-99.9,80,52,33,0.00,40.00,6,3,16,0.00
2014-3-2,68.0,54.0,44.0,53.0,44.9,36.0,100,73,52,0.00,40.00,7,2,20,0.06
2014-3-3,53.0,36.2,25.0,53.0,33.3,18.0,100,90,73,0.00,40.00,10,5,16,1.31
2014-3-4,41.0,31.7,24.0,32.0,24.5,18.0,93,75,62,0.00,40.00,7,3,14,0.04
2014-3-5,60.0,41.6,29.0,37.0,31.2,25.0,100,72,33,0.00,40.00,4,2,9,0.00
2014-3-6,55.0,45.2,37.0,27.0,23.6,19.0,67,44,25,0.00,40.00,9,5,19,0.00
2014-3-7,60.0,46.4,38.0,39.0,34.2,23.0,92,65,41,0.00,40.00,9,4,15,0.00
2014-3-8,68.0,49.0,33.0,42.0,33.0,-99.9,99,63,27,0.00,40.00,6,3,13,0.00
2014-3-9,63.0,52.9,41.0,40.0,34.1,22.0,72,51,23,0.00,40.00,5,3,12,0.00
2014-3-10,64.0,49.6,33.0,43.0,37.4,29.0,94,65,43,0.00,40.00,6,3,16,0.00
2014-3-11,75.0,57.4,39.0,46.0,40.2,37.0,92,59,25,0.00,40.00,5,2,11,0.00
2014-3-12,70.0,51.8,33.0,58.0,44.3,28.0,96,76,53,0.00,40.00,12,5,33,0.09
2014-3-13,45.0,35.6,30.0,28.0,13.7,3.0,81,44,19,0.00,40.00,6,4,18,0.01
2014-3-14,63.0,43.5,25.0,28.0,21.4,17.0,77,46,24,0.00,40.00,7,3,21,0.00
2014-3-15,68.0,57.7,48.0,39.0,33.2,27.0,65,41,23,0.00,40.00,7,4,21,0.00
2014-3-16,54.0,47.3,44.0,48.0,39.1,-99.9,97,78,51,0.00,40.00,11,5,21,0.34
2014-3-17,45.0,42.0,41.0,43.0,38.2,-99.9,97,91,85,0.00,40.00,8,5,12,0.21
2014-3-18,64.0,49.5,39.0,44.0,39.2,35.0,88,69,47,0.00,40.00,6,4,12,0.01
2014-3-19,65.0,51.6,42.0,46.0,42.9,40.0,94,74,43,0.00,40.00,7,4,18,0.00
2014-3-20,61.0,50.0,41.0,47.0,26.7,-99.9,83,47,19,0.00,40.00,5,4,15,0.00
2014-3-21,67.0,47.6,31.0,31.0,25.6,-99.9,88,50,20,0.00,40.00,5,2,11,0.00
2014-3-22,70.0,56.3,41.0,40.0,34.5,28.0,69,46,29,0.00,40.00,5,2,13,0.00
2014-3-23,56.0,49.1,44.0,43.0,33.1,-99.9,95,59,30,0.00,40.00,5,2,14,0.13
2014-3-24,53.0,47.1,39.0,25.0,16.9,12.0,57,31,19,0.00,40.00,5,3,10,0.00
2014-3-25,41.0,37.1,31.0,32.0,23.7,14.0,93,60,33,0.00,40.00,7,4,20,0.00
2014-3-26,46.0,34.5,26.0,17.0,11.5,9.0,56,39,23,0.00,40.00,5,3,19,0.01
2014-3-27,65.0,45.1,27.0,23.0,19.2,15.0,69,41,15,0.00,40.00,6,3,13,0.01
2014-3-28,62.0,55.4,48.0,53.0,44.6,23.0,87,69,27,0.00,40.00,5,2,12,0.01
2014-3-29,57.0,49.8,41.0,54.0,47.3,37.0,100,91,83,0.00,40.00,7,3,20,0.31
2014-3-30,59.0,44.6,36.0,34.0,28.0,-99.9,86,57,30,0.00,40.00,6,4,19,0.11
2014-3-31,72.0,50.2,31.0,36.0,29.9,26.0,91,53,18,0.00,40.00,5,2,12,0.03
2014-4-1,80.0,59.3,43.0,44.0,37.7,-99.9,74,51,26,0.00,40.00,6,3,14,0.03
2014-4-2,83.0,62.8,44.0,50.0,43.2,37.0,82,53,26,0.00,40.00,5,2,12,0.00
2014-4-3,81.0,69.1,59.0,63.0,54.6,40.0,100,64,33,0.00,40.00,7,4,19,0.51
2014-4-4,69.0,61.7,56.0,59.0,56.4,54.0,97,84,67,0.00,40.00,9,4,25,0.56
2014-4-5,61.0,51.5,44.0,54.0,34.8,30.0,85,55,34,0.00,40.00,5,3,13,0.03
2014-4-6,69.0,54.6,43.0,40.0,32.4,-99.9,80,47,26,0.00,40.00,8,4,16,0.00
2014-4-7,72.0,57.2,47.0,57.0,50.5,40.0,98,80,49,0.00,40.00,9,5,23,0.97
2014-4-8,59.0,53.7,48.0,49.0,38.8,33.0,69,58,38,0.00,40.00,7,4,21,0.08
2014-4-9,66.0,56.0,48.0,45.0,36.4,27.0,86,53,24,0.00,40.00,7,3,14,0.00
2014-4-10,75.0,58.1,37.0,40.0,36.0,33.0,89,49,23,0.00,40.00,7,3,14,0.00
2014-4-11,76.0,62.3,46.0,46.0,40.3,31.0,82,48,19,0.00,40.00,7,3,21,0.00
2014-4-12,80.0,66.6,50.0,55.0,50.7,45.0,92,59,35,0.00,40.00,6,3,15,0.00
2014-4-13,86.0,67.1,50.0,55.0,50.2,-99.9,96,63,32,0.00,40.00,5,3,11,0.00
2014-4-14,70.0,65.2,61.0,61.0,55.7,51.0,87,72,52,0.00,40.00,4,2,10,0.03
2014-4-15,63.0,45.9,37.0,58.0,39.0,21.0,94,78,50,0.00,40.00,8,4,18,0.25
2014-4-16,60.0,43.2,29.0,32.0,23.4,19.0,83,48,27,0.00,40.00,11,5,19,0.01
2014-4-17,70.0,54.3,40.0,33.0,27.2,22.0,56,37,20,0.00,40.00,8,4,18,0.00
2014-4-18,62.0,52.6,45.0,44.0,33.8,24.0,72,50,31,0.00,40.00,4,2,8,0.00
2014-4-19,70.0,58.0,48.0,46.0,42.1,36.0,87,60,30,0.00,40.00,12,3,24,0.00
2014-4-20,77.0,58.8,42.0,46.0,38.1,-99.9,96,56,20,0.00,40.00,8,3,15,0.00
2014-4-21,79.0,61.5,43.0,47.0,41.6,38.0,81,53,28,0.00,40.00,5,2,11,0.00
2014-4-22,70.0,62.0,55.0,61.0,55.5,46.0,98,80,63,0.00,40.00,4,2,9,0.04
2014-4-23,71.0,59.5,49.0,58.0,31.8,22.0,98,38,17,0.00,40.00,5,3,13,0.01
2014-4-24,79.0,59.2,40.0,43.0,36.5,32.0,77,48,22,0.00,40.00,6,3,11,0.00
2014-4-25,72.0,62.0,53.0,62.0,50.9,39.0,94,68,43,0.00,40.00,7,3,23,0.35
2014-4-26,79.0,58.2,45.0,54.0,45.7,33.0,100,73,19,0.00,40.00,5,3,9,0.26
2014-4-28,72.0,69.7,67.0,62.0,61.2,61.0,85,74,68,0.00,40.00,3,2,6,0.00
2014-4-29,83.0,69.3,63.0,64.0,61.5,57.0,100,79,43,0.00,40.00,6,2,15,0.50
2014-4-30,78.0,66.1,57.0,67.0,60.7,56.0,100,84,58,0.00,40.00,7,3,18,0.18
2014-5-1,66.0,58.4,52.0,56.0,46.6,38.0,100,68,38,0.00,40.00,5,3,16,0.06
2014-5-2,68.0,55.8,43.0,46.0,41.6,39.0,92,63,35,0.00,40.00,5,2,12,0.00
2014-5-3,76.0,61.2,44.0,47.0,42.3,38.0,92,54,30,0.00,40.00,5,3,15,0.00
2014-5-4,85.0,65.9,47.0,53.0,44.9,-99.9,91,52,27,0.00,40.00,5,2,14,0.00
2014-5-5,86.0,73.3,60.0,56.0,52.2,48.0,72,50,32,0.00,40.00,5,3,15,0.00
2014-5-6,86.0,73.6,59.0,56.0,53.3,50.0,81,52,29,0.00,40.00,4,2,15,0.00
2014-5-7,65.0,65.0,65.0,54.0,54.0,54.0,67,67,67,0.00,40.00,0,0,4,0.00
2014-5-13,69.0,67.8,66.0,69.0,67.8,66.0,100,100,99,0.00,40.00,2,1,5,1.29
2014-5-14,88.0,74.5,64.0,68.0,62.7,52.0,100,72,36,0.00,40.00,7,3,18,0.02
2014-5-15,72.0,60.8,53.0,67.0,57.2,43.0,100,88,67,0.00,40.00,5,3,12,0.45
2014-5-16,61.0,53.4,45.0,49.0,45.5,42.0,99,76,53,0.00,40.00,5,2,16,0.02
2014-5-17,63.0,51.9,41.0,49.0,43.9,40.0,96,76,51,0.00,40.00,5,2,14,0.01
2014-5-18,70.0,57.7,49.0,48.0,42.1,-99.9,90,61,36,0.00,40.00,8,3,14,0.00
2014-5-19,75.0,56.8,43.0,52.0,38.9,-99.9,96,62,29,0.00,40.00,5,2,9,0.00
2014-5-20,82.0,64.4,50.0,60.0,51.4,-99.9,92,67,43,0.00,40.00,6,2,18,0.00
2014-5-21,83.0,71.8,57.0,64.0,60.3,56.0,97,70,48,0.00,40.00,5,2,17,0.00
2014-5-22,86.0,70.2,61.0,69.0,61.4,-99.9,96,79,52,0.00,40.00,4,2,26,0.15
2014-5-23,81.0,71.3,63.0,67.0,61.8,53.0,100,75,50,0.00,40.00,4,2,13,0.24
2014-5-24,81.0,66.8,52.0,56.0,51.6,47.0,96,63,33,0.00,40.00,6,3,12,0.14
2014-5-25,80.0,66.0,54.0,61.0,53.6,-99.9,93,69,45,0.00,40.00,4,2,13,0.00
2014-5-26,85.0,71.6,59.0,66.0,61.7,58.0,99,74,46,0.00,40.00,4,2,11,0.00
2014-5-27,85.0,73.3,63.0,70.0,65.5,62.0,98,78,58,0.00,40.00,4,2,11,0.00
2014-5-28,89.0,74.6,63.0,68.0,64.0,60.0,100,73,39,0.00,40.00,3,2,9,0.00
2014-5-29,87.0,71.3,63.0,69.0,64.7,61.0,97,81,50,0.00,40.00,4,2,19,0.08
2014-5-30,86.0,71.3,65.0,69.0,66.5,65.0,100,86,54,0.00,40.00,4,2,21,0.04
2014-5-31,86.0,74.7,65.0,69.0,64.9,59.0,100,76,43,0.00,40.00,6,3,11,0.01
2014-6-1,84.0,72.9,67.0,63.0,58.5,-99.9,82,64,46,0.00,40.00,5,3,9,0.00
2014-6-2,85.0,80.0,72.0,64.0,62.6,61.0,72,56,46,0.00,40.00,4,2,11,0.00
2014-6-3,83.0,73.1,64.0,67.0,62.9,58.0,90,71,57,0.00,40.00,3,2,9,0.00
2014-6-4,88.0,75.4,63.0,70.0,66.2,62.0,99,76,48,0.00,40.00,5,2,18,0.00
2014-6-5,80.0,73.9,69.0,70.0,68.1,66.0,95,83,67,0.00,40.00,3,2,9,0.00
2014-6-6,85.0,73.7,64.0,68.0,61.7,59.0,95,68,45,0.00,40.00,5,2,11,0.00
2014-6-7,89.0,74.8,62.0,64.0,60.2,56.0,86,63,36,0.00,40.00,5,2,11,0.00
2014-6-8,85.0,75.2,68.0,67.0,60.9,-99.9,83,65,46,0.00,40.00,5,3,15,0.00
2014-6-9,83.0,71.7,60.0,65.0,61.0,58.0,93,70,52,0.00,40.00,4,2,12,0.00
2014-6-10,88.0,74.2,65.0,70.0,65.5,62.0,96,76,52,0.00,40.00,5,2,25,0.03
2014-6-11,84.0,70.8,64.0,71.0,65.7,63.0,98,85,51,0.00,40.00,5,2,11,0.29
2014-6-12,81.0,71.4,66.0,70.0,66.9,63.0,100,87,57,0.00,40.00,4,2,10,0.32
2014-6-13,80.0,70.2,65.0,68.0,65.8,62.0,100,87,56,0.00,40.00,4,2,9,0.08
2014-6-14,85.0,72.4,64.0,66.0,59.6,54.0,100,68,35,0.00,40.00,7,2,12,0.02
2014-6-15,90.0,73.5,60.0,69.0,59.2,-99.9,82,66,44,0.00,40.00,4,2,11,0.00
2014-6-16,93.0,79.6,69.0,71.0,67.6,63.0,96,70,38,0.00,40.00,3,2,8,0.00
2014-6-17,93.0,80.2,68.0,71.0,66.2,61.0,95,66,35,0.00,40.00,5,2,12,0.00
2014-6-18,92.0,78.3,67.0,71.0,67.7,65.0,94,72,42,0.00,40.00,4,2,13,0.06
2014-6-19,89.0,75.7,67.0,71.0,68.1,65.0,96,79,52,0.00,40.00,5,2,18,0.06
2014-6-20,91.0,75.4,66.0,71.0,67.8,65.0,99,80,46,0.00,40.00,4,2,14,0.01
2014-6-21,87.0,75.7,69.0,72.0,69.4,67.0,99,82,54,0.00,40.00,4,2,10,0.11
2014-6-22,89.0,76.7,70.0,70.0,64.3,-99.9,96,71,41,0.00,40.00,4,2,9,0.04
2014-6-23,91.0,76.0,67.0,67.0,65.7,63.0,95,73,41,0.00,40.00,5,2,13,0.00
2014-6-24,87.0,78.0,68.0,70.0,67.9,66.0,97,73,53,0.00,40.00,5,3,13,0.71
2014-6-25,87.0,75.8,67.0,70.0,68.1,66.0,99,80,51,0.00,40.00,4,2,13,0.82
2014-6-26,89.0,77.5,69.0,71.0,67.6,61.0,99,75,40,0.00,40.00,4,2,7,0.14
2014-6-27,89.0,78.2,72.0,70.0,68.2,66.0,91,73,48,0.00,40.00,4,2,9,0.00
2014-6-28,83.0,74.2,69.0,72.0,69.0,67.0,98,85,64,0.00,40.00,5,2,13,0.94
2014-6-29,87.0,73.2,69.0,73.0,65.7,-99.9,100,83,58,0.00,40.00,3,2,15,1.05
2014-6-30,82.0,73.1,66.0,72.0,69.3,65.0,99,89,71,0.00,40.00,3,2,8,0.07
2014-7-1,91.0,79.6,69.0,73.0,70.7,68.0,99,77,53,0.00,40.00,4,2,11,0.07
2014-7-2,92.0,83.3,73.0,73.0,68.9,64.0,95,65,42,0.00,40.00,4,2,10,0.00
2014-7-3,83.0,75.9,70.0,69.0,63.5,53.0,94,68,40,0.00,40.00,4,3,14,0.00
2014-7-4,81.0,71.5,60.0,60.0,53.7,49.0,89,57,33,0.00,40.00,7,3,12,0.00
2014-7-5,85.0,71.1,55.0,59.0,54.4,51.0,89,59,35,0.00,40.00,7,3,15,0.00
2014-7-6,88.0,73.8,62.0,63.0,55.9,-99.9,92,60,31,0.00,40.00,4,2,10,0.00
2014-7-7,91.0,76.5,62.0,66.0,62.1,59.0,92,65,36,0.00,40.00,5,2,14,0.00
2014-7-8,89.0,74.7,69.0,70.0,65.7,60.0,98,75,52,0.00,40.00,6,2,17,0.22
2014-7-9,85.0,75.0,70.0,72.0,70.0,67.0,98,85,60,0.00,40.00,3,2,12,0.36
2014-7-10,86.0,74.6,65.0,70.0,66.9,60.0,98,80,42,0.00,40.00,3,1,9,0.02
2014-7-11,91.0,77.9,65.0,68.0,62.9,52.0,98,66,28,0.00,40.00,3,0,7,0.02
2014-7-12,92.0,78.8,65.0,70.0,65.3,62.0,93,66,38,0.00,40.00,0,0,3,0.00
2014-7-13,93.0,79.9,69.0,71.0,68.6,67.0,95,71,43,0.00,40.00,0,0,2,0.00
2014-7-14,93.0,80.7,70.0,72.0,69.5,68.0,96,72,45,0.00,40.00,0,0,9,1.15
2014-7-15,82.0,73.7,69.0,71.0,67.0,57.0,98,82,55,0.00,40.00,3,1,15,1.86
2014-7-16,79.0,67.4,57.0,58.0,54.4,49.0,95,66,41,0.00,40.00,3,0,10,0.02
2014-7-17,81.0,68.7,56.0,62.0,55.9,52.0,94,67,39,0.00,40.00,4,0,10,0.00
2014-7-18,71.0,67.5,65.0,68.0,63.1,55.0,98,86,66,0.00,40.00,1,0,3,0.34
2014-7-19,77.0,69.0,65.0,67.0,65.0,64.0,98,88,69,0.00,40.00,1,0,6,1.72
2014-7-20,85.0,70.3,66.0,71.0,63.6,62.0,96,80,58,0.00,40.00,0,0,6,0.13
2014-7-21,89.0,77.3,68.0,71.0,68.8,66.0,98,77,53,0.00,40.00,2,0,7,0.01
2014-7-22,89.0,78.8,67.0,72.0,68.3,66.0,96,72,50,0.00,40.00,3,0,7,0.00
2014-7-23,85.0,75.0,70.0,73.0,70.7,68.0,97,87,66,0.00,40.00,5,0,21,0.89
2014-7-24,86.0,74.7,69.0,71.0,68.4,63.0,98,83,59,0.00,40.00,4,1,11,0.01
2014-7-25,85.0,73.1,61.0,65.0,63.1,60.0,96,73,48,0.00,40.00,2,0,8,0.01
2014-7-26,86.0,74.1,62.0,69.0,65.2,61.0,97,76,47,0.00,40.00,3,0,7,0.00
2014-7-27,88.0,72.8,68.0,74.0,67.5,66.0,96,82,63,0.00,40.00,3,1,13,1.37
2014-7-28,80.0,72.0,65.0,69.0,63.3,59.0,99,77,51,0.00,40.00,4,1,13,2.08
2014-7-29,77.0,67.7,59.0,60.0,56.0,50.0,97,69,42,0.00,40.00,4,1,10,0.00
2014-7-30,80.0,65.6,54.0,62.0,56.0,53.0,97,74,42,0.00,40.00,4,0,8,0.00
2014-7-31,81.0,65.1,59.0,65.0,56.7,58.0,97,79,51,0.00,40.00,2,0,6,0.00
2014-8-1,83.0,75.2,65.0,64.0,62.5,59.0,90,66,52,0.00,40.00,3,0,8,0.00
2014-8-2,85.0,71.6,65.0,67.0,62.2,60.0,96,74,47,0.00,40.00,1,0,7,0.20
2014-8-3,84.0,72.9,64.0,67.0,63.2,60.0,99,75,45,0.00,40.00,3,0,6,0.20
2014-8-4,85.0,70.3,60.0,65.0,61.3,58.0,97,76,40,0.00,40.00,1,0,5,0.00
2014-8-5,87.0,75.4,65.0,67.0,63.7,58.0,94,70,37,0.00,40.00,3,1,8,0.00
2014-8-6,85.0,73.1,64.0,71.0,65.8,62.0,94,80,55,0.00,40.00,2,0,9,0.04
2014-8-7,86.0,80.0,72.0,70.0,68.3,63.0,92,69,47,0.00,40.00,1,0,7,0.25
2014-8-8,79.0,71.7,67.0,72.0,67.8,65.0,96,88,74,0.00,40.00,0,0,3,0.26
2014-8-9,86.0,75.4,70.0,72.0,70.4,69.0,99,86,59,0.00,40.00,3,0,7,0.03
2014-8-10,80.0,73.6,69.0,71.0,69.6,67.0,96,87,74,0.00,40.00,0,0,4,0.04
2014-8-11,88.0,75.2,69.0,73.0,70.0,67.0,97,85,61,0.00,40.00,2,0,7,0.09
2014-8-12,83.0,72.9,68.0,72.0,68.5,65.0,98,87,64,0.00,40.00,2,0,7,0.14
2014-8-13,76.0,68.6,60.0,65.0,59.5,57.0,95,74,57,0.00,40.00,3,1,9,0.01
2014-8-14,83.0,68.3,56.0,63.0,58.7,55.0,97,75,45,0.00,40.00,4,1,9,0.03
2014-8-15,83.0,71.0,60.0,67.0,62.4,59.0,96,77,51,0.00,40.00,4,1,10,0.03
2014-8-16,84.0,70.4,59.0,65.0,62.1,58.0,97,78,49,0.00,40.00,3,1,8,0.00
2014-8-17,84.0,72.8,65.0,70.0,66.7,64.0,96,82,61,0.00,40.00,3,1,7,0.03
2014-8-18,82.0,73.2,70.0,71.0,69.4,68.0,98,89,66,0.00,40.00,5,2,17,0.18
2014-8-19,86.0,76.3,71.0,71.0,69.7,69.0,97,82,58,0.00,40.00,4,1,11,0.01
2014-8-20,88.0,73.5,67.0,74.0,68.7,65.0,98,86,58,0.00,40.00,6,2,21,0.37
2014-8-21,89.0,73.7,66.0,73.0,68.7,65.0,99,86,58,0.00,40.00,5,2,8,0.37
2014-8-22,91.0,80.1,70.0,75.0,72.5,69.0,99,80,54,0.00,40.00,4,1,11,0.00
2014-8-23,91.0,80.2,71.0,74.0,71.8,69.0,95,78,51,0.00,40.00,4,2,9,0.09
2014-8-24,88.0,77.0,73.0,73.0,68.3,65.0,95,74,49,0.00,40.00,7,3,13,0.01
2014-8-25,86.0,74.8,65.0,65.0,63.8,62.0,90,70,46,0.00,40.00,6,3,12,0.00
2014-8-26,86.0,73.3,62.0,64.0,62.2,59.0,90,70,46,0.00,40.00,6,2,11,0.00
2014-8-27,88.0,72.6,61.0,66.0,63.0,60.0,97,75,42,0.00,40.00,4,1,9,0.00
2014-8-28,91.0,76.5,63.0,71.0,66.9,62.0,95,75,48,0.00,40.00,4,2,10,0.00
2014-8-29,93.0,78.4,69.0,72.0,68.7,64.0,94,75,40,0.00,40.00,5,2,9,0.00
2014-8-30,91.0,77.8,67.0,71.0,68.2,64.0,95,75,41,0.00,40.00,6,2,11,0.00
2014-8-31,82.0,72.1,68.0,73.0,68.6,67.0,98,87,71,0.00,40.00,4,2,17,0.64
2014-9-1,90.0,77.3,68.0,74.0,69.6,67.0,99,80,48,0.00,40.00,5,1,12,0.14
2014-9-2,91.0,77.0,68.0,73.0,69.3,67.0,97,80,48,0.00,40.00,4,2,16,0.72
2014-9-3,86.0,74.1,67.0,71.0,67.9,66.0,98,83,54,0.00,40.00,4,2,10,0.74
2014-9-4,88.0,76.0,68.0,73.0,70.2,67.0,97,84,57,0.00,40.00,4,2,8,0.00
2014-9-5,88.0,76.4,69.0,72.0,69.5,66.0,97,81,51,0.00,40.00,4,1,9,0.00
2014-9-6,89.0,76.3,69.0,73.0,69.2,65.0,96,80,54,0.00,40.00,4,2,11,0.00
2014-9-7,86.0,73.7,66.0,69.0,66.1,64.0,97,78,55,0.00,40.00,6,3,15,0.00
2014-9-8,87.0,74.9,66.0,70.0,66.1,64.0,95,76,52,0.00,40.00,6,3,15,0.00
2014-9-9,85.0,73.9,67.0,69.0,67.1,64.0,96,81,55,0.00,40.00,5,2,12,0.30
2014-9-10,85.0,75.9,67.0,69.0,67.2,64.0,95,76,52,0.00,40.00,3,2,8,0.00
2014-9-11,88.0,73.5,67.0,73.0,69.3,66.0,97,88,60,0.00,40.00,3,1,11,0.37
2014-9-12,84.0,74.1,70.0,71.0,69.8,69.0,98,88,62,0.00,40.00,4,1,10,0.27
2014-9-13,73.0,68.9,64.0,71.0,63.1,55.0,97,83,67,0.00,40.00,8,3,14,0.08
2014-9-14,74.0,65.7,59.0,65.0,58.3,54.0,96,76,67,0.00,40.00,6,2,11,0.06
2014-9-15,77.0,67.8,61.0,68.0,64.3,60.0,98,89,70,0.00,40.00,3,1,9,0.00
2014-9-16,77.0,70.1,65.0,68.0,64.7,61.0,98,85,67,0.00,40.00,4,2,9,0.01
2014-9-17,78.0,66.3,58.0,62.0,57.9,55.0,97,77,47,0.00,40.00,5,2,9,0.01
2014-9-18,77.0,65.7,57.0,60.0,56.4,51.0,97,75,43,0.00,40.00,4,2,10,0.00
2014-9-19,84.0,68.4,57.0,62.0,57.5,54.0,92,71,40,0.00,40.00,8,3,15,0.00
2014-9-20,84.0,70.7,60.0,62.0,58.3,55.0,92,68,39,0.00,40.00,5,2,11,0.00
2014-9-21,82.0,68.4,60.0,68.0,61.9,54.0,97,80,56,0.00,40.00,4,2,15,0.02
2014-9-22,74.0,64.1,55.0,54.0,49.1,45.0,86,60,41,0.00,40.00,7,3,12,0.02
2014-9-23,76.0,61.9,47.0,52.0,49.5,45.0,94,67,40,0.00,40.00,7,3,14,0.01
2014-9-24,77.0,64.8,53.0,54.0,48.9,43.0,92,61,30,0.00,40.00,6,4,13,0.00
2014-9-25,79.0,68.1,57.0,63.0,57.6,53.0,90,71,49,0.00,40.00,6,3,12,0.00
2014-9-26,82.0,70.4,62.0,62.0,59.9,58.0,94,72,45,0.00,40.00,7,3,15,0.00
2014-9-27,83.0,69.9,59.0,61.0,58.8,55.0,95,70,41,0.00,40.00,4,2,10,0.00
2014-9-28,77.0,66.3,59.0,62.0,57.7,56.0,91,74,53,0.00,40.00,5,2,9,0.00
2014-9-29,79.0,68.3,63.0,64.0,62.0,59.0,97,82,52,0.00,40.00,4,2,9,0.04
2014-9-30,82.0,65.9,56.0,64.0,58.9,55.0,98,81,42,0.00,40.00,5,2,10,0.01
2014-10-1,83.0,66.6,53.0,61.0,55.3,49.0,97,72,32,0.00,40.00,4,1,8,0.00
2014-10-2,85.0,64.0,54.0,61.0,56.9,53.0,96,80,43,0.00,40.00,4,1,9,0.01
2014-10-3,75.0,65.2,60.0,66.0,60.8,58.0,98,86,64,0.00,40.00,6,2,14,0.27
2014-10-4,62.0,53.1,46.0,58.0,37.2,29.0,86,56,36,0.00,40.00,6,4,16,0.11
2014-10-5,65.0,49.4,37.0,41.0,34.8,31.0,91,60,30,0.00,40.00,5,2,14,0.00
2014-10-6,64.0,53.9,43.0,59.0,48.9,40.0,93,84,59,0.00,40.00,3,2,10,0.52
2014-10-7,65.0,59.0,56.0,62.0,57.6,55.0,99,95,86,0.00,40.00,3,2,10,1.06
2014-10-8,78.0,67.7,56.0,64.0,57.1,45.0,99,74,31,0.00,40.00,4,2,14,0.05
2014-10-9,76.0,60.6,50.0,61.0,55.6,49.0,98,85,56,0.00,40.00,4,2,12,0.03
2014-10-10,67.0,62.3,57.0,66.0,61.5,56.0,99,97,92,0.00,40.00,3,2,8,1.16
2014-10-11,75.0,67.4,64.0,68.0,65.3,64.0,100,93,77,0.00,40.00,5,2,11,0.48
2014-10-12,71.0,63.9,61.0,67.0,62.2,60.0,99,93,83,0.00,40.00,4,2,9,1.09
2014-10-13,82.0,69.2,60.0,64.0,60.2,54.0,97,76,38,0.00,40.00,7,4,18,0.26
2014-10-14,74.0,67.7,59.0,67.0,61.1,54.0,98,81,58,0.00,40.00,9,4,20,1.70
2014-10-15,65.0,57.0,53.0,54.0,51.5,47.0,97,83,55,0.00,40.00,4,2,17,0.60
2014-10-16,60.0,55.7,53.0,53.0,52.0,50.0,97,88,69,0.00,40.00,4,2,10,0.38
2014-10-17,75.0,58.8,46.0,57.0,51.4,45.0,99,80,48,0.00,40.00,5,2,12,0.01
2014-10-18,65.0,58.8,52.0,57.0,48.1,42.0,90,69,49,0.00,40.00,4,2,13,0.00
2014-10-19,63.0,53.1,46.0,45.0,41.3,40.0,92,65,45,0.00,40.00,3,1,11,0.00
2014-10-20,68.0,53.4,42.0,53.0,46.6,41.0,96,80,52,0.00,40.00,4,1,13,0.00
2014-10-21,65.0,56.7,50.0,51.0,46.2,39.0,95,70,44,0.00,40.00,3,2,13,0.00
2014-10-22,58.0,49.7,41.0,42.0,39.1,37.0,92,68,48,0.00,40.00,7,2,13,0.00
2014-10-23,62.0,52.0,45.0,43.0,40.8,38.0,91,67,44,0.00,40.00,5,1,12,0.00
2014-10-24,66.0,51.2,42.0,46.0,43.2,40.0,95,77,44,0.00,40.00,3,1,9,0.00
2014-10-25,69.0,52.9,38.0,51.0,45.0,37.0,98,78,46,0.00,40.00,3,1,7,0.00
2014-10-26,77.0,60.9,51.0,54.0,47.0,42.0,96,67,30,0.00,40.00,2,1,8,0.00
2014-10-27,75.0,58.2,47.0,59.0,50.5,45.0,97,78,49,0.00,40.00,3,1,6,0.00
2014-10-28,76.0,61.7,51.0,60.0,53.5,50.0,99,78,43,0.00,40.00,6,1,19,0.00
2014-10-29,63.0,55.3,44.0,56.0,48.9,41.0,96,80,50,0.00,40.00,3,1,8,0.20
2014-10-30,59.0,47.2,41.0,45.0,40.5,35.0,99,81,43,0.00,40.00,4,1,7,0.01
2014-10-31,52.0,43.3,37.0,44.0,39.1,33.0,97,86,57,0.00,40.00,6,2,20,0.14
2014-11-1,41.0,37.6,36.0,34.0,32.8,30.0,93,83,72,0.00,40.00,5,4,15,0.21
2014-11-2,49.0,38.1,31.0,29.0,24.5,20.0,89,60,32,0.00,40.00,4,1,12,0.01
2014-11-3,61.0,41.8,28.0,36.0,30.1,26.0,93,68,27,0.00,40.00,3,1,7,0.00
2014-11-4,65.0,47.9,36.0,41.0,35.8,33.0,90,67,32,0.00,40.00,2,1,5,0.00
2014-11-5,53.0,48.5,44.0,49.0,44.1,40.0,98,85,64,0.00,40.00,3,1,6,0.18
2014-11-6,66.0,55.7,46.0,56.0,44.9,29.0,99,71,37,0.00,40.00,8,3,26,0.28
2014-11-7,48.0,42.3,33.0,38.0,34.1,31.0,94,73,58,0.00,40.00,4,2,15,0.01
2014-11-8,56.0,42.8,31.0,41.0,35.1,30.0,96,76,46,0.00,40.00,3,1,7,0.00
2014-11-9,60.0,45.2,35.0,42.0,37.5,34.0,98,78,42,0.00,40.00,4,1,10,0.00
2014-11-10,65.0,48.0,35.0,43.0,38.7,34.0,97,74,38,0.00,40.00,3,1,7,0.00
2014-11-11,68.0,49.1,35.0,44.0,39.5,34.0,98,74,37,0.00,40.00,3,1,10,0.00
2014-11-12,54.0,47.5,41.0,50.0,41.0,37.0,86,77,71,0.00,40.00,3,2,9,0.00
2014-11-13,47.0,37.1,31.0,39.0,31.8,22.0,95,82,59,0.00,40.00,4,3,13,0.00
2015-1-1,39.0,30.0,20.0,31.0,23.6,18.0,92,78,60,0.00,40.00,2,1,5,0.00
2015-1-2,44.0,40.7,38.0,39.0,33.2,28.0,91,75,61,0.00,40.00,4,2,7,0.00